createdAt,value
2019-01-28T00:01:05.512Z,97906.05
2019-01-28T00:05:12.397Z,97915.83
2019-01-28T00:09:19.540Z,97915.25
2019-01-28T00:13:26.566Z,97924.59
2019-01-28T00:17:33.501Z,97919.80
2019-01-28T00:21:40.331Z,97921.05
2019-01-28T00:25:47.272Z,97915.55
2019-01-28T00:29:54.119Z,97914.77
2019-01-28T00:34:00.976Z,97921.83
2019-01-28T00:38:09.174Z,97921.88
2019-01-28T00:42:15.998Z,97927.19
2019-01-28T00:46:22.876Z,97927.60
2019-01-28T00:50:29.765Z,97926.99
2019-01-28T00:54:36.663Z,97931.52
2019-01-28T00:58:43.508Z,97936.98
2019-01-28T01:02:51.948Z,97930.73
2019-01-28T01:06:58.818Z,97932.56
2019-01-28T01:11:05.862Z,97936.56
2019-01-28T01:15:15.019Z,97935.53
2019-01-28T01:19:23.823Z,97952.02
2019-01-28T01:23:30.436Z,97943.83
2019-01-28T01:27:37.514Z,97949.19
2019-01-28T01:31:44.297Z,97947.80
2019-01-28T01:35:51.213Z,97951.70
2019-01-28T01:39:58.032Z,97948.77
2019-01-28T01:44:07.218Z,97945.27
2019-01-28T01:48:14.331Z,97945.55
2019-01-28T01:52:21.259Z,97947.69
2019-01-28T01:56:28.035Z,97948.95
2019-01-28T02:00:34.824Z,97948.95
2019-01-28T02:04:41.805Z,97940.66
2019-01-28T02:08:48.628Z,97941.17
2019-01-28T02:12:55.480Z,97936.42
2019-01-28T02:17:02.240Z,97937.67
2019-01-28T02:21:09.338Z,97935.01
2019-01-28T02:25:16.965Z,97933.84
2019-01-28T02:29:23.854Z,97931.84
2019-01-28T02:33:30.647Z,97924.99
2019-01-28T02:37:38.394Z,97929.55
2019-01-28T02:41:45.257Z,97929.88
2019-01-28T02:45:52.084Z,97924.27
2019-01-28T02:49:58.926Z,97927.05
2019-01-28T02:54:05.864Z,97931.45
2019-01-28T02:58:12.659Z,97914.84
2019-01-28T03:02:19.460Z,97909.53
2019-01-28T03:06:26.261Z,97904.45
2019-01-28T03:10:33.111Z,97906.87
2019-01-28T03:14:39.967Z,97905.45
2019-01-28T03:18:46.836Z,97906.87
2019-01-28T03:22:53.678Z,97895.63
2019-01-28T03:27:00.539Z,97895.96
2019-01-28T03:31:07.393Z,97895.20
2019-01-28T03:35:14.439Z,97886.69
2019-01-28T03:39:21.240Z,97883.34
2019-01-28T03:43:28.062Z,97892.80
2019-01-28T03:47:34.854Z,97880.10
2019-01-28T03:51:41.762Z,97881.59
2019-01-28T03:55:48.594Z,97884.95
2019-01-28T03:59:55.452Z,97875.91
2019-01-28T04:04:02.274Z,97876.05
2019-01-28T04:08:09.138Z,97879.96
2019-01-28T04:12:15.912Z,97871.64
2019-01-28T04:16:22.813Z,97874.44
2019-01-28T04:20:29.685Z,97876.39
2019-01-28T04:24:36.494Z,97872.87
2019-01-28T04:28:43.497Z,97872.59
2019-01-28T04:32:50.321Z,97871.38
2019-01-28T04:36:57.173Z,97863.29
2019-01-28T04:41:03.969Z,97857.10
2019-01-28T04:45:14.579Z,97850.58
2019-01-28T04:49:21.455Z,97847.28
2019-01-28T04:53:28.375Z,97841.38
2019-01-28T04:57:35.194Z,97823.46
2019-01-28T05:01:42.054Z,97831.92
2019-01-28T05:05:48.836Z,97822.85
2019-01-28T05:09:55.792Z,97821.19
2019-01-28T05:14:12.042Z,97822.83
2019-01-28T05:18:18.241Z,97805.81
2019-01-28T05:22:25.313Z,97805.42
2019-01-28T05:26:32.263Z,97805.89
2019-01-28T05:30:39.345Z,97796.48
2019-01-28T05:34:46.341Z,97795.12
2019-01-28T05:38:53.222Z,97809.27
2019-01-28T05:43:00.190Z,97801.16
2019-01-28T05:47:06.986Z,97792.86
2019-01-28T05:51:13.974Z,97790.19
2019-01-28T05:55:20.969Z,97790.59
2019-01-28T05:59:28.291Z,97781.52
2019-01-28T06:03:35.209Z,97765.63
2019-01-28T06:07:42.245Z,97765.48
2019-01-28T06:11:49.244Z,97771.02
2019-01-28T06:15:58.955Z,97767.27
2019-01-28T06:20:08.982Z,97775.91
2019-01-28T06:24:15.832Z,97765.42
2019-01-28T06:28:27.910Z,97764.45
2019-01-28T06:32:34.760Z,97761.77
2019-01-28T06:36:41.923Z,97757.31
2019-01-28T06:40:48.960Z,97759.91
2019-01-28T06:44:55.858Z,97753.19
2019-01-28T06:49:02.660Z,97762.05
2019-01-28T06:53:09.537Z,97760.23
2019-01-28T06:57:16.403Z,97745.02
2019-01-28T07:01:23.365Z,97764.89
2019-01-28T07:05:30.183Z,97767.29
2019-01-28T07:09:37.065Z,97762.41
2019-01-28T07:13:43.961Z,97768.02
2019-01-28T07:17:54.957Z,97765.22
2019-01-28T07:22:01.231Z,97764.41
2019-01-28T07:26:08.145Z,97764.12
2019-01-28T07:30:24.718Z,97770.22
2019-01-28T07:34:31.700Z,97774.17
2019-01-28T07:38:38.723Z,97767.66
2019-01-28T07:42:45.783Z,97767.94
2019-01-28T07:46:52.551Z,97755.86
2019-01-28T07:50:59.450Z,97774.59
2019-01-28T07:55:07.960Z,97780.44
2019-01-28T07:59:14.913Z,97778.73
2019-01-28T08:03:21.767Z,97778.25
2019-01-28T08:07:32.651Z,97773.08
2019-01-28T08:11:39.538Z,97772.23
2019-01-28T08:15:46.519Z,97780.31
2019-01-28T08:19:53.478Z,97762.16
2019-01-28T08:24:00.389Z,97783.83
2019-01-28T08:28:07.667Z,97769.10
2019-01-28T08:32:14.529Z,97781.52
2019-01-28T08:36:21.478Z,97785.16
2019-01-28T08:40:28.412Z,97782.27
2019-01-28T08:44:35.299Z,97783.93
2019-01-28T08:48:42.592Z,97778.84
2019-01-28T08:52:50.593Z,97784.21
2019-01-28T08:56:57.461Z,97786.59
2019-01-28T09:01:04.549Z,97785.50
2019-01-28T09:05:12.802Z,97789.55
2019-01-28T09:09:19.787Z,97787.73
2019-01-28T09:13:36.862Z,97772.91
2019-01-28T09:17:43.688Z,97790.77
2019-01-28T09:21:51.579Z,97792.88
2019-01-28T09:25:58.503Z,97803.38
2019-01-28T09:30:06.791Z,97792.52
2019-01-28T09:34:13.657Z,97796.67
2019-01-28T09:38:20.444Z,97803.45
2019-01-28T09:42:27.324Z,97799.84
2019-01-28T09:46:34.180Z,97790.86
2019-01-28T09:50:41.138Z,97798.67
2019-01-28T09:54:50.805Z,97806.53
2019-01-28T09:58:57.734Z,97823.23
2019-01-28T10:03:04.974Z,97826.81
2019-01-28T10:07:12.801Z,97829.56
2019-01-28T10:11:19.717Z,97834.49
2019-01-28T10:15:29.034Z,97831.55
2019-01-28T10:19:36.194Z,97826.16
2019-01-28T10:23:43.007Z,97835.46
2019-01-28T10:27:49.918Z,97846.08
2019-01-28T10:31:56.753Z,97843.88
2019-01-28T10:36:04.151Z,97846.44
2019-01-28T10:40:14.271Z,97845.18
2019-01-28T10:44:21.138Z,97843.08
2019-01-28T10:48:28.106Z,97838.31
2019-01-28T10:52:35.033Z,97826.72
2019-01-28T10:56:41.904Z,97841.75
2019-01-28T11:00:51.832Z,97831.95
2019-01-28T11:04:58.675Z,97824.53
2019-01-28T11:09:08.288Z,97829.56
2019-01-28T11:13:15.535Z,97845.02
2019-01-28T11:17:23.387Z,97846.04
2019-01-28T11:21:33.152Z,97839.25
2019-01-28T11:25:40.162Z,97842.66
2019-01-28T11:29:47.991Z,97844.27
2019-01-28T11:33:54.892Z,97853.84
2019-01-28T11:38:02.900Z,97850.62
2019-01-28T11:42:09.739Z,97865.59
2019-01-28T11:46:16.974Z,97866.06
2019-01-28T11:50:23.955Z,97870.34
2019-01-28T11:54:30.979Z,97864.38
2019-01-28T11:58:37.809Z,97865.19
2019-01-28T12:02:44.693Z,97862.82
2019-01-28T12:06:51.481Z,97877.18
2019-01-28T12:10:59.123Z,97877.22
2019-01-28T12:15:08.847Z,97885.13
2019-01-28T12:19:15.718Z,97886.30
2019-01-28T12:23:22.559Z,97895.11
2019-01-28T12:27:31.100Z,97906.28
2019-01-28T12:31:38.034Z,97913.36
2019-01-28T12:35:44.898Z,97906.69
2019-01-28T12:39:51.867Z,97927.50
2019-01-28T12:43:58.855Z,97932.33
2019-01-28T12:48:05.658Z,97928.73
2019-01-28T12:52:13.373Z,97924.91
2019-01-28T12:56:20.273Z,97930.97
2019-01-28T13:00:33.894Z,97927.59
2019-01-28T13:04:42.256Z,97934.60
2019-01-28T13:08:50.529Z,97949.40
2019-01-28T13:12:57.355Z,97953.03
2019-01-28T13:17:04.480Z,97956.19
2019-01-28T13:21:11.297Z,97963.52
2019-01-28T13:25:19.930Z,97973.97
2019-01-28T13:29:26.828Z,97972.77
2019-01-28T13:33:33.878Z,97976.91
2019-01-28T13:37:40.701Z,97984.89
2019-01-28T13:41:47.579Z,97985.00
2019-01-28T13:45:54.474Z,97991.56
2019-01-28T13:50:01.290Z,98005.09
2019-01-28T13:54:09.842Z,98010.72
2019-01-28T13:58:17.084Z,98014.39
2019-01-28T14:02:24.793Z,98025.02
2019-01-28T14:06:32.372Z,98026.28
2019-01-28T14:10:39.627Z,98038.70
2019-01-28T14:14:47.109Z,98040.98
2019-01-28T14:18:54.393Z,98044.98
2019-01-28T14:23:01.540Z,98046.22
2019-01-28T14:27:08.655Z,98052.13
2019-01-28T14:31:15.661Z,98060.30
2019-01-28T14:35:23.859Z,98058.73
2019-01-28T14:39:31.008Z,98071.77
2019-01-28T14:43:37.975Z,98081.91
2019-01-28T14:47:44.868Z,98081.21
2019-01-28T14:51:51.863Z,98088.91
2019-01-28T14:55:58.785Z,98096.13
2019-01-28T15:00:10.348Z,98101.70
2019-01-28T15:04:17.332Z,98101.98
2019-01-28T15:08:24.356Z,98121.92
2019-01-28T15:12:31.429Z,98130.86
2019-01-28T15:16:38.445Z,98141.25
2019-01-28T15:20:45.624Z,98151.34
2019-01-28T15:24:52.468Z,98152.32
2019-01-28T15:28:59.453Z,98161.81
2019-01-28T15:33:06.405Z,98172.92
2019-01-28T15:37:13.434Z,98179.41
2019-01-28T15:41:20.419Z,98187.33
2019-01-28T15:45:34.858Z,98191.41
2019-01-28T15:49:41.814Z,98195.50
2019-01-28T15:53:49.797Z,98202.50
2019-01-28T15:57:56.741Z,98215.14
2019-01-28T16:02:03.587Z,98223.68
2019-01-28T16:06:10.581Z,98223.68
2019-01-28T16:10:18.633Z,98236.56
2019-01-28T16:14:25.581Z,98247.67
2019-01-28T16:18:34.555Z,98242.14
2019-01-28T16:22:41.300Z,98251.12
2019-01-28T16:26:48.540Z,98264.36
2019-01-28T16:30:55.613Z,98268.02
2019-01-28T16:35:02.446Z,98276.69
2019-01-28T16:39:10.979Z,98272.67
2019-01-28T16:43:18.018Z,98294.13
2019-01-28T16:47:25.371Z,98302.54
2019-01-28T16:51:32.479Z,98314.06
2019-01-28T16:55:40.036Z,98324.28
2019-01-28T16:59:47.128Z,98335.30
2019-01-28T17:03:54.779Z,98339.03
2019-01-28T17:08:01.839Z,98344.30
2019-01-28T17:12:08.657Z,98352.03
2019-01-28T17:16:16.570Z,98373.13
2019-01-28T17:20:35.268Z,98387.03
2019-01-28T17:24:37.902Z,98390.02
2019-01-28T17:28:45.258Z,98407.43
2019-01-28T17:32:52.996Z,98410.64
2019-01-28T17:37:00.398Z,98425.55
2019-01-28T17:41:07.856Z,98440.09
2019-01-28T17:45:17.455Z,98448.89
2019-01-28T17:49:25.670Z,98452.57
2019-01-28T17:53:33.064Z,98462.52
2019-01-28T17:57:39.983Z,98468.69
2019-01-28T18:01:46.986Z,98478.95
2019-01-28T18:05:55.313Z,98489.95
2019-01-28T18:10:02.551Z,98498.16
2019-01-28T18:14:09.777Z,98518.92
2019-01-28T18:18:16.841Z,98512.89
2019-01-28T18:22:23.968Z,98526.65
2019-01-28T18:26:31.945Z,98536.06
2019-01-28T18:30:44.676Z,98551.03
2019-01-28T18:34:51.835Z,98564.66
2019-01-28T18:38:59.021Z,98565.75
2019-01-28T18:43:07.563Z,98582.02
2019-01-28T18:47:14.852Z,98583.45
2019-01-28T18:51:21.928Z,98599.77
2019-01-28T18:55:28.904Z,98607.06
2019-01-28T18:59:36.496Z,98621.32
2019-01-28T19:03:43.974Z,98628.44
2019-01-28T19:07:55.806Z,98635.56
2019-01-28T19:12:15.847Z,98649.43
2019-01-28T19:16:33.662Z,98656.98
2019-01-28T19:20:58.012Z,98663.45
2019-01-28T19:25:06.591Z,98676.95
2019-01-28T19:29:14.216Z,98682.92
2019-01-28T19:33:21.295Z,98689.58
2019-01-28T19:37:28.388Z,98703.09
2019-01-28T19:41:36.371Z,98708.91
2019-01-28T19:45:43.712Z,98729.20
2019-01-28T19:49:50.826Z,98740.48
2019-01-28T19:53:57.779Z,98747.48
2019-01-28T19:58:04.772Z,98756.00
2019-01-28T20:02:11.699Z,98761.71
2019-01-28T20:06:18.734Z,98767.52
2019-01-28T20:10:26.195Z,98767.38
2019-01-28T20:14:36.107Z,98769.41
2019-01-28T20:18:43.580Z,98773.45
2019-01-28T20:22:50.723Z,98768.84
2019-01-28T20:26:58.176Z,98780.46
2019-01-28T20:31:06.541Z,98793.75
2019-01-28T20:35:14.199Z,98797.19
2019-01-28T20:39:21.504Z,98800.50
2019-01-28T20:43:28.461Z,98809.66
2019-01-28T20:47:35.654Z,98808.59
2019-01-28T20:51:45.603Z,98822.69
2019-01-28T20:55:52.808Z,98828.05
2019-01-28T21:00:00.251Z,98840.27
2019-01-28T21:04:07.765Z,98844.90
2019-01-28T21:08:15.524Z,98852.28
2019-01-28T21:12:35.280Z,98860.12
2019-01-28T21:16:42.791Z,98863.77
2019-01-28T21:20:50.067Z,98872.20
2019-01-28T21:24:57.044Z,98878.53
2019-01-28T21:29:03.922Z,98886.95
2019-01-28T21:33:11.350Z,98890.84
2019-01-28T21:37:28.936Z,98896.20
2019-01-28T21:41:35.781Z,98896.79
2019-01-28T21:45:42.926Z,98902.23
2019-01-28T21:49:49.870Z,98909.84
2019-01-28T21:53:57.004Z,98922.29
2019-01-28T21:58:04.025Z,98919.88
2019-01-28T22:02:10.955Z,98922.41
2019-01-28T22:06:17.980Z,98931.16
2019-01-28T22:10:24.847Z,98934.50
2019-01-28T22:14:31.707Z,98944.36
2019-01-28T22:18:39.679Z,98951.61
2019-01-28T22:22:46.482Z,98958.61
2019-01-28T22:26:53.440Z,98967.11
2019-01-28T22:31:00.409Z,98979.14
2019-01-28T22:35:09.641Z,98985.74
2019-01-28T22:39:16.617Z,98987.23
2019-01-28T22:43:23.649Z,98986.70
2019-01-28T22:47:31.168Z,98991.23
2019-01-28T22:51:38.298Z,98990.31
2019-01-28T22:55:45.253Z,98997.67
2019-01-28T22:59:52.159Z,98997.86
2019-01-28T23:03:59.459Z,99004.35
2019-01-28T23:08:06.643Z,99010.50
2019-01-28T23:12:13.515Z,99005.55
2019-01-28T23:16:20.334Z,99014.45
2019-01-28T23:20:27.259Z,99018.67
2019-01-28T23:24:34.158Z,99022.16
2019-01-28T23:28:42.250Z,99020.70
2019-01-28T23:32:49.097Z,99024.66
2019-01-28T23:36:55.948Z,99028.38
2019-01-28T23:41:02.844Z,99042.34
2019-01-28T23:45:10.465Z,99047.67
2019-01-28T23:49:17.384Z,99045.75
2019-01-28T23:53:24.287Z,99053.63
2019-01-28T23:57:31.124Z,99059.84
